Time;durP1;ratioP1;P1;durP2;ratioP2;P2;SDS_P1;SDS_P2;PMS_P1;PMS_P2;Temp;Humidity;BMP_temperature;BMP_pressure;BME280_temperature;BME280_humidity;BME280_pressure;Samples;Min_cycle;Max_cycle;Signal;HPM_P1;HPM_P2
2021/06/14 00:01:56;;;;;;;5.10;2.45;;;;;;;16.71;48.83;97946.41;4996594;28;20056;-82
2021/06/14 00:04:22;;;;;;;2.88;2.17;;;;;;;16.67;49.08;97940.09;5030628;28;20037;-82
2021/06/14 00:06:47;;;;;;;4.25;2.67;;;;;;;16.56;48.58;97928.81;5034352;28;20029;-81
2021/06/14 00:09:16;;;;;;;4.03;2.53;;;;;;;16.57;49.41;97940.91;5001478;28;20187;-82
2021/06/14 00:11:41;;;;;;;4.97;2.95;;;;;;;16.54;49.17;97944.06;5000538;28;20552;-82
2021/06/14 00:14:06;;;;;;;5.40;2.45;;;;;;;16.59;49.06;97946.69;5006664;28;20045;-81
2021/06/14 00:16:35;;;;;;;6.75;2.88;;;;;;;16.49;48.91;97933.56;5009899;28;20044;-81
2021/06/14 00:19:02;;;;;;;3.75;2.20;;;;;;;16.48;49.31;97945.09;5023187;28;20043;-81
2021/06/14 00:21:27;;;;;;;3.53;2.53;;;;;;;16.40;50.00;97946.44;5006340;28;20485;-82
2021/06/14 00:23:55;;;;;;;4.18;2.47;;;;;;;16.28;50.28;97933.56;4996070;28;20030;-82
2021/06/14 00:26:21;;;;;;;3.80;2.70;;;;;;;16.34;49.88;97936.97;5011067;28;20028;-82
2021/06/14 00:28:51;;;;;;;3.88;2.35;;;;;;;16.28;49.91;97930.91;5011815;28;20372;-81
2021/06/14 00:31:17;;;;;;;3.15;2.15;;;;;;;16.30;50.39;97925.41;5018742;28;20029;-81
2021/06/14 00:33:42;;;;;;;3.55;2.35;;;;;;;16.26;50.15;97925.16;5018896;28;20018;-81
2021/06/14 00:36:08;;;;;;;4.80;2.45;;;;;;;16.21;50.27;97922.50;5025090;28;20110;-81
2021/06/14 00:38:35;;;;;;;3.72;3.25;;;;;;;16.13;50.37;97917.00;4991179;28;20531;-81
2021/06/14 00:41:03;;;;;;;3.90;2.70;;;;;;;16.10;49.94;97923.53;5035009;28;20044;-81
2021/06/14 00:43:29;;;;;;;3.35;2.28;;;;;;;16.16;50.32;97935.66;5014355;28;20080;-81
2021/06/14 00:45:57;;;;;;;5.13;3.00;;;;;;;16.04;50.47;97927.19;5015368;28;20282;-81
2021/06/14 00:48:22;;;;;;;3.35;2.42;;;;;;;16.05;50.22;97923.53;5028234;28;20040;-81
2021/06/14 00:50:57;;;;;;;3.42;2.63;;;;;;;15.90;51.09;97932.19;5020375;28;20021;-81
2021/06/14 00:53:33;;;;;;;2.97;2.50;;;;;;;15.87;51.41;97928.25;5040359;28;20025;-81
2021/06/14 00:56:00;;;;;;;4.80;2.92;;;;;;;15.90;50.92;97922.47;5023572;28;20037;-80
2021/06/14 00:58:25;;;;;;;3.63;2.65;;;;;;;15.81;51.15;97918.78;4993155;28;20025;-80
2021/06/14 01:00:53;;;;;;;5.47;3.10;;;;;;;15.76;51.42;97908.25;5020110;28;20497;-81
2021/06/14 01:03:20;;;;;;;3.35;2.72;;;;;;;15.72;51.45;97907.19;5010836;28;20033;-80
2021/06/14 01:05:51;;;;;;;4.70;2.95;;;;;;;15.66;51.54;97916.88;5029335;28;20029;-81
2021/06/14 01:08:16;;;;;;;3.83;2.40;;;;;;;15.77;51.49;97928.22;5056126;28;20059;-81
2021/06/14 01:10:43;;;;;;;3.65;2.63;;;;;;;15.64;51.75;97918.97;5016623;28;20033;-80
2021/06/14 01:13:17;;;;;;;5.70;2.78;;;;;;;15.30;51.84;97902.84;5037178;28;20358;-81
2021/06/14 01:15:53;;;;;;;4.07;3.13;;;;;;;15.14;51.47;97894.91;5038501;28;20472;-81
2021/06/14 01:18:28;;;;;;;4.97;2.60;;;;;;;15.36;52.42;97922.81;5040284;28;20033;-80
2021/06/14 01:21:06;;;;;;;4.15;2.72;;;;;;;15.39;52.82;97916.25;5010264;28;20041;-81
2021/06/14 01:24:17;;;;;;;4.18;3.00;;;;;;;15.20;52.47;97916.72;5022708;28;20026;-81
2021/06/14 01:26:51;;;;;;;7.20;3.00;;;;;;;15.13;52.31;97897.78;4993514;28;20033;-80
2021/06/14 01:29:16;;;;;;;5.25;2.80;;;;;;;15.31;52.84;97910.47;5034293;28;20418;-80
2021/06/14 01:31:42;;;;;;;4.80;2.97;;;;;;;15.23;52.92;97902.28;5022712;28;20109;-79
2021/06/14 01:34:08;;;;;;;4.30;2.63;;;;;;;15.23;53.40;97903.06;5046870;28;20104;-80
2021/06/14 01:36:36;;;;;;;5.63;3.65;;;;;;;15.17;53.37;97907.50;5010379;28;20171;-81
2021/06/14 01:39:05;;;;;;;4.72;2.88;;;;;;;15.11;53.28;97903.31;5031849;28;20033;-80
2021/06/14 01:41:36;;;;;;;4.35;3.13;;;;;;;15.14;53.36;97902.00;5024601;28;20085;-79
2021/06/14 01:44:03;;;;;;;4.22;3.00;;;;;;;15.07;53.24;97899.59;4999544;28;20025;-80
2021/06/14 01:46:32;;;;;;;5.93;3.13;;;;;;;14.96;53.56;97888.28;5025600;28;20041;-80
2021/06/14 01:48:59;;;;;;;4.05;2.92;;;;;;;14.96;53.82;97892.75;5015661;28;20021;-80
2021/06/14 01:51:29;;;;;;;5.25;3.05;;;;;;;14.69;54.25;97866.63;5031591;28;20069;-81
2021/06/14 01:54:08;;;;;;;5.03;3.42;;;;;;;14.93;53.77;97883.53;5017335;28;20484;-81
2021/06/14 01:56:38;;;;;;;5.63;3.38;;;;;;;14.83;54.06;97882.72;5011750;28;20059;-81
2021/06/14 01:59:08;;;;;;;4.68;3.20;;;;;;;14.90;53.78;97885.88;5018169;28;20457;-81
2021/06/14 02:01:36;;;;;;;4.90;2.95;;;;;;;14.89;54.07;97876.44;5026154;28;20490;-80
2021/06/14 02:04:02;;;;;;;5.28;3.00;;;;;;;14.86;54.36;97864.63;5010711;28;20045;-80
2021/06/14 02:06:40;;;;;;;4.40;3.30;;;;;;;14.66;54.59;97873.16;4995051;28;20498;-80
2021/06/14 02:09:18;;;;;;;4.72;3.05;;;;;;;14.65;54.68;97868.16;5016007;28;20388;-80
2021/06/14 02:11:46;;;;;;;3.65;2.50;;;;;;;14.70;54.19;97858.53;5007901;28;20029;-80
2021/06/14 02:14:18;;;;;;;4.15;2.78;;;;;;;14.77;54.29;97877.44;4991916;28;20453;-80
2021/06/14 02:16:45;;;;;;;3.75;2.60;;;;;;;14.84;53.91;97858.06;5013659;28;20534;-81
2021/06/14 02:19:12;;;;;;;6.25;2.70;;;;;;;14.87;54.48;97860.16;5035580;28;20025;-80
2021/06/14 02:21:37;;;;;;;4.22;2.60;;;;;;;14.90;53.73;97857.81;5038074;28;20060;-81
2021/06/14 02:24:03;;;;;;;2.95;2.65;;;;;;;14.92;53.82;97847.09;4998560;28;20053;-80
2021/06/14 02:26:29;;;;;;;3.88;2.97;;;;;;;14.93;53.86;97846.81;5037940;28;20480;-80
2021/06/14 02:28:54;;;;;;;3.58;2.88;;;;;;;14.96;53.48;97842.91;5037684;28;20682;-80
2021/06/14 02:31:20;;;;;;;6.10;2.88;;;;;;;14.87;53.83;97839.97;5025349;28;20074;-80
2021/06/14 02:33:45;;;;;;;4.55;2.95;;;;;;;14.76;54.49;97836.53;5031560;28;20580;-80
2021/06/14 02:36:11;;;;;;;5.22;3.05;;;;;;;14.77;54.82;97843.34;5013982;28;20745;-80
2021/06/14 02:38:37;;;;;;;3.63;2.97;;;;;;;14.82;54.52;97849.66;5018100;28;20033;-81
2021/06/14 02:41:03;;;;;;;3.40;2.70;;;;;;;14.76;54.69;97844.38;5013160;28;20444;-81
2021/06/14 02:43:29;;;;;;;7.53;3.30;;;;;;;14.72;54.43;97826.78;5006082;28;20045;-81
2021/06/14 02:45:55;;;;;;;3.35;2.92;;;;;;;14.81;54.48;97848.09;5020284;28;20443;-81
2021/06/14 02:48:22;;;;;;;4.00;2.97;;;;;;;14.77;54.35;97848.59;5040194;28;20029;-81
2021/06/14 02:50:48;;;;;;;5.00;2.97;;;;;;;14.72;54.90;97851.19;4997864;28;20029;-81
2021/06/14 02:53:14;;;;;;;4.35;2.72;;;;;;;14.66;54.38;97840.94;4994414;28;20166;-81
2021/06/14 02:55:51;;;;;;;4.70;2.70;;;;;;;14.48;54.31;97829.81;5000263;28;20519;-81
2021/06/14 02:58:31;;;;;;;4.15;3.03;;;;;;;14.48;54.89;97849.94;5026956;28;20091;-81
2021/06/14 03:00:57;;;;;;;3.97;2.42;;;;;;;14.65;54.48;97845.41;5017601;28;20076;-81
2021/06/14 03:03:22;;;;;;;3.03;2.70;;;;;;;14.65;54.32;97829.66;5035484;28;20029;-81
2021/06/14 03:05:48;;;;;;;3.72;2.58;;;;;;;14.66;54.24;97831.22;4998826;28;20508;-81
2021/06/14 03:08:16;;;;;;;4.60;2.88;;;;;;;14.66;54.39;97844.34;5019647;28;20075;-80
2021/06/14 03:10:41;;;;;;;3.05;2.47;;;;;;;14.77;54.01;97832.88;5027180;28;20148;-80
2021/06/14 03:13:07;;;;;;;4.90;2.67;;;;;;;14.78;54.37;97839.66;5032239;28;20061;-80
2021/06/14 03:15:34;;;;;;;4.97;3.25;;;;;;;14.79;54.15;97837.84;5035678;28;20029;-80
2021/06/14 03:18:00;;;;;;;3.97;2.53;;;;;;;14.87;53.69;97841.81;4988451;28;20023;-80
2021/06/14 03:20:25;;;;;;;3.85;2.53;;;;;;;14.88;53.69;97830.28;5009196;28;20053;-80
2021/06/14 03:22:52;;;;;;;4.75;2.60;;;;;;;14.92;53.51;97837.38;5032353;28;20033;-80
2021/06/14 03:25:18;;;;;;;5.28;2.67;;;;;;;14.87;53.85;97826.09;5028345;28;20037;-81
2021/06/14 03:27:44;;;;;;;4.15;2.40;;;;;;;14.85;53.38;97817.69;4995880;28;20063;-81
2021/06/14 03:30:11;;;;;;;5.13;2.75;;;;;;;14.89;53.29;97827.41;5033507;28;20102;-81
2021/06/14 03:32:40;;;;;;;3.15;2.33;;;;;;;14.94;53.19;97837.94;5019887;28;20024;-80
2021/06/14 03:35:07;;;;;;;4.85;2.53;;;;;;;15.07;53.07;97820.91;4995824;28;20018;-81
2021/06/14 03:37:34;;;;;;;5.63;2.50;;;;;;;15.01;53.83;97808.03;4989028;28;20041;-81
2021/06/14 03:40:03;;;;;;;4.60;2.80;;;;;;;14.90;53.82;97815.09;5008487;28;20074;-80
2021/06/14 03:42:30;;;;;;;4.03;2.60;;;;;;;14.91;54.03;97806.19;5018780;28;20512;-81
2021/06/14 03:44:57;;;;;;;5.03;3.47;;;;;;;14.84;54.32;97795.94;5008192;28;20582;-80
2021/06/14 03:47:23;;;;;;;6.38;2.50;;;;;;;15.02;54.25;97809.63;5007974;28;20469;-81
2021/06/14 03:49:48;;;;;;;3.80;2.55;;;;;;;15.00;54.39;97815.13;5015935;28;20029;-80
2021/06/14 03:52:14;;;;;;;3.60;2.45;;;;;;;15.06;54.30;97824.59;5013128;28;20029;-81
2021/06/14 03:54:39;;;;;;;4.95;3.20;;;;;;;15.06;54.14;97806.25;5025884;28;20075;-81
2021/06/14 03:57:08;;;;;;;3.90;2.40;;;;;;;15.05;54.29;97801.25;5027600;28;20038;-80
2021/06/14 03:59:36;;;;;;;4.80;2.53;;;;;;;15.16;54.00;97819.41;5016534;28;20361;-80
2021/06/14 04:02:02;;;;;;;3.95;2.50;;;;;;;15.20;53.60;97803.13;5040224;28;20033;-80
2021/06/14 04:07:08;;;;;;;4.28;2.53;;;;;;;15.46;52.87;97828.38;5032523;28;20080;-80
2021/06/14 04:09:34;;;;;;;3.72;2.50;;;;;;;15.56;53.27;97827.63;5033264;28;20383;-80
2021/06/14 04:12:00;;;;;;;3.08;2.60;;;;;;;15.58;52.98;97819.47;5014282;28;20025;-81
2021/06/14 04:14:28;;;;;;;5.03;2.70;;;;;;;15.72;52.66;97836.28;5015951;28;20040;-80
2021/06/14 04:16:54;;;;;;;3.40;2.40;;;;;;;15.66;51.90;97811.06;5014603;28;20025;-80
2021/06/14 04:19:19;;;;;;;3.17;2.28;;;;;;;15.87;51.57;97825.06;5009703;28;20029;-80
2021/06/14 04:21:44;;;;;;;7.47;2.78;;;;;;;15.87;51.73;97817.94;5021799;28;20456;-80
2021/06/14 04:24:10;;;;;;;4.88;2.55;;;;;;;15.97;51.73;97814.53;5023899;28;20117;-80
2021/06/14 04:26:36;;;;;;;6.75;2.90;;;;;;;16.04;51.55;97815.06;5014828;28;20430;-80
2021/06/14 04:29:01;;;;;;;5.20;2.97;;;;;;;16.14;51.55;97826.59;5030687;28;20032;-80
2021/06/14 04:31:27;;;;;;;4.13;2.65;;;;;;;16.11;51.79;97812.16;5024960;28;20040;-81
2021/06/14 04:33:52;;;;;;;3.50;2.45;;;;;;;16.32;51.15;97825.28;5012453;28;20021;-80
2021/06/14 04:36:18;;;;;;;3.38;2.65;;;;;;;16.29;51.23;97816.06;5019482;28;20026;-80
2021/06/14 04:38:43;;;;;;;4.63;2.35;;;;;;;16.45;51.16;97827.34;5019623;28;20067;-81
2021/06/14 04:41:08;;;;;;;4.30;2.67;;;;;;;16.52;50.72;97816.56;5022759;28;20091;-81
2021/06/14 04:43:34;;;;;;;2.97;2.58;;;;;;;16.55;50.98;97814.16;5028427;28;20461;-81
2021/06/14 04:46:02;;;;;;;4.82;2.63;;;;;;;16.63;51.03;97821.53;5000328;28;20039;-81
2021/06/14 04:48:28;;;;;;;3.80;2.42;;;;;;;16.72;51.13;97816.50;5020309;28;20044;-81
2021/06/14 04:50:53;;;;;;;4.20;2.60;;;;;;;16.74;51.32;97818.84;5042733;28;20029;-81
2021/06/14 04:53:19;;;;;;;4.72;3.25;;;;;;;16.87;51.10;97833.31;5025595;28;20112;-81
2021/06/14 04:55:44;;;;;;;4.63;2.90;;;;;;;16.90;50.81;97825.69;5013556;28;20025;-81
2021/06/14 04:58:10;;;;;;;4.70;2.35;;;;;;;16.97;50.50;97823.53;5019211;28;20025;-80
2021/06/14 05:00:35;;;;;;;3.92;2.30;;;;;;;17.03;50.21;97814.59;5012939;28;20710;-80
2021/06/14 05:03:01;;;;;;;4.43;2.80;;;;;;;17.17;50.36;97817.41;5000391;28;20075;-79
2021/06/14 05:05:27;;;;;;;3.38;2.35;;;;;;;17.27;50.10;97816.53;5022794;28;20048;-79
2021/06/14 05:07:52;;;;;;;5.47;2.70;;;;;;;17.26;50.11;97822.88;5030633;28;20025;-80
2021/06/14 05:10:17;;;;;;;5.82;3.13;;;;;;;17.31;49.70;97814.19;5016501;28;20387;-80
2021/06/14 05:12:43;;;;;;;3.63;2.92;;;;;;;17.34;49.71;97808.34;5007433;28;20044;-80
2021/06/14 05:15:09;;;;;;;3.33;2.33;;;;;;;17.38;49.55;97802.28;5029185;28;20519;-80
2021/06/14 05:17:34;;;;;;;3.70;2.33;;;;;;;17.43;49.51;97804.09;5039913;28;20025;-80
2021/06/14 05:20:00;;;;;;;3.50;2.60;;;;;;;17.55;49.19;97814.31;5021660;28;20534;-80
2021/06/14 05:22:26;;;;;;;4.25;2.80;;;;;;;17.66;49.29;97815.00;5032654;28;20120;-80
2021/06/14 05:24:52;;;;;;;3.90;2.78;;;;;;;17.59;49.06;97800.28;5032547;28;20510;-79
2021/06/14 05:27:17;;;;;;;5.20;2.92;;;;;;;17.77;49.16;97813.88;5037795;28;20044;-80
2021/06/14 05:29:43;;;;;;;4.30;2.40;;;;;;;17.87;49.33;97813.03;5004931;28;20123;-79
2021/06/14 05:32:08;;;;;;;4.88;2.60;;;;;;;17.89;48.54;97808.25;5014454;28;20033;-79
2021/06/14 05:34:34;;;;;;;5.97;2.53;;;;;;;17.99;48.86;97800.28;5018897;28;20092;-80
2021/06/14 05:36:59;;;;;;;4.68;2.47;;;;;;;18.24;49.03;97816.94;5037787;28;20036;-80
2021/06/14 05:39:25;;;;;;;4.00;2.63;;;;;;;18.41;48.63;97811.25;5037674;28;20029;-79
2021/06/14 05:41:51;;;;;;;4.00;2.70;;;;;;;18.56;47.92;97797.91;5037749;28;20033;-79
2021/06/14 05:44:16;;;;;;;4.82;2.58;;;;;;;18.79;48.08;97806.84;5004670;28;20044;-80
2021/06/14 05:46:43;;;;;;;3.25;2.03;;;;;;;18.99;47.44;97800.59;4997707;28;20036;-80
2021/06/14 05:49:08;;;;;;;3.20;2.40;;;;;;;19.20;47.21;97798.44;5035852;28;20376;-80
2021/06/14 05:51:34;;;;;;;4.45;2.60;;;;;;;19.09;46.60;97789.13;5055582;28;20025;-79
2021/06/14 05:53:59;;;;;;;3.03;2.10;;;;;;;19.28;46.76;97797.81;5014815;28;20044;-80
2021/06/14 05:56:25;;;;;;;4.25;2.58;;;;;;;19.33;46.42;97789.03;5020680;28;20032;-79
2021/06/14 05:58:52;;;;;;;4.43;2.50;;;;;;;19.43;46.46;97790.72;5034788;28;20033;-79
2021/06/14 06:01:17;;;;;;;3.70;2.10;;;;;;;19.80;46.16;97791.78;5017554;28;20480;-79
2021/06/14 06:03:43;;;;;;;3.58;2.40;;;;;;;19.96;45.51;97794.97;5008445;28;20144;-79
2021/06/14 06:06:09;;;;;;;3.92;2.42;;;;;;;20.11;45.48;97788.66;4998644;28;20033;-79
2021/06/14 06:08:34;;;;;;;2.83;2.30;;;;;;;20.22;44.82;97800.63;5031556;28;20392;-80
2021/06/14 06:10:59;;;;;;;5.00;2.30;;;;;;;20.19;44.28;97791.41;5014106;28;20600;-78
2021/06/14 06:13:25;;;;;;;3.65;2.25;;;;;;;20.39;44.31;97803.47;5020860;28;20064;-79
2021/06/14 06:15:50;;;;;;;2.47;2.15;;;;;;;20.49;43.99;97796.41;5036435;28;20500;-79
2021/06/14 06:18:16;;;;;;;3.72;2.28;;;;;;;20.76;43.50;97785.84;5013078;28;20099;-78
2021/06/14 06:20:41;;;;;;;3.72;2.20;;;;;;;20.86;42.77;97784.88;5004206;28;20040;-80
2021/06/14 06:23:07;;;;;;;3.72;2.08;;;;;;;21.11;42.39;97782.75;5032339;28;20021;-79
2021/06/14 06:25:32;;;;;;;5.07;2.70;;;;;;;21.33;42.02;97776.72;5054648;28;20047;-79
2021/06/14 06:27:59;;;;;;;4.03;2.20;;;;;;;21.80;41.01;97779.13;5035384;28;20435;-80
2021/06/14 06:30:27;;;;;;;2.78;2.17;;;;;;;21.97;41.14;97778.41;5008354;28;20172;-79
2021/06/14 06:32:53;;;;;;;3.20;2.40;;;;;;;22.21;40.32;97786.81;5023851;28;20029;-80
2021/06/14 06:35:19;;;;;;;4.18;2.25;;;;;;;22.29;39.59;97789.84;5023153;28;20032;-79
2021/06/14 06:37:45;;;;;;;3.47;2.15;;;;;;;22.38;39.48;97772.88;5012624;28;20660;-80
2021/06/14 06:40:11;;;;;;;3.92;2.00;;;;;;;22.62;39.17;97777.78;5035545;28;20032;-80
2021/06/14 06:42:37;;;;;;;3.33;2.20;;;;;;;22.76;39.34;97776.88;5013113;28;20060;-79
2021/06/14 06:45:05;;;;;;;2.58;1.95;;;;;;;22.91;38.38;97776.44;5031597;28;20037;-79
2021/06/14 06:47:31;;;;;;;2.63;1.95;;;;;;;23.30;38.51;97784.63;5033392;28;20078;-80
2021/06/14 06:49:56;;;;;;;3.97;2.10;;;;;;;23.16;37.92;97779.47;5019702;28;20452;-78
2021/06/14 06:52:21;;;;;;;3.45;2.08;;;;;;;23.51;38.26;97779.44;5019760;28;20029;-79
2021/06/14 06:54:47;;;;;;;3.00;2.10;;;;;;;23.61;37.86;97779.13;5037403;28;20029;-79
2021/06/14 06:57:13;;;;;;;4.60;2.30;;;;;;;24.26;38.44;97785.25;5034567;28;20098;-80
2021/06/14 06:59:39;;;;;;;2.85;1.80;;;;;;;24.33;36.21;97778.66;5047947;28;20037;-78
2021/06/14 07:02:06;;;;;;;2.97;1.92;;;;;;;24.57;35.94;97786.88;5019211;28;20028;-80
2021/06/14 07:04:32;;;;;;;3.17;2.10;;;;;;;24.80;35.50;97787.38;4995853;28;20457;-78
2021/06/14 07:06:57;;;;;;;2.53;1.95;;;;;;;25.15;35.24;97787.13;5048565;28;20043;-79
2021/06/14 07:09:23;;;;;;;2.70;1.90;;;;;;;25.29;34.88;97794.91;5009695;28;20072;-79
2021/06/14 07:11:48;;;;;;;2.28;1.52;;;;;;;25.54;32.43;97787.03;5028778;28;20040;-78
2021/06/14 07:14:13;;;;;;;3.58;1.83;;;;;;;25.64;33.91;97796.53;5015505;28;20025;-79
2021/06/14 07:16:40;;;;;;;3.53;2.15;;;;;;;25.90;33.80;97770.34;5030807;28;20030;-79
2021/06/14 07:19:06;;;;;;;2.28;2.00;;;;;;;26.08;32.79;97784.31;5014473;28;20435;-78
2021/06/14 07:21:31;;;;;;;2.50;1.90;;;;;;;26.05;32.40;97784.22;5016301;28;20071;-80
2021/06/14 07:23:57;;;;;;;2.75;2.00;;;;;;;25.85;30.40;97786.56;5023506;28;20029;-79
2021/06/14 07:26:24;;;;;;;2.92;1.88;;;;;;;25.68;30.43;97789.41;5036149;28;20033;-79
2021/06/14 07:28:50;;;;;;;2.67;1.85;;;;;;;25.79;32.34;97775.34;5037232;28;20021;-79
2021/06/14 07:31:18;;;;;;;2.45;2.25;;;;;;;26.09;31.29;97785.88;5005221;28;20121;-78
2021/06/14 07:33:44;;;;;;;2.70;1.80;;;;;;;25.84;30.38;97782.34;5009577;28;20060;-80
2021/06/14 07:36:10;;;;;;;3.33;2.15;;;;;;;26.16;31.28;97782.66;5044161;28;20029;-80
2021/06/14 07:38:38;;;;;;;3.53;2.17;;;;;;;26.11;30.75;97791.66;5035524;28;20120;-79
2021/06/14 07:41:06;;;;;;;2.72;2.08;;;;;;;26.44;29.87;97782.81;5020726;28;20078;-80
2021/06/14 07:43:32;;;;;;;3.88;2.50;;;;;;;26.84;30.27;97784.78;5021645;28;20693;-80
2021/06/14 07:45:59;;;;;;;2.80;1.75;;;;;;;27.02;30.93;97779.97;5020790;28;20029;-79
2021/06/14 07:48:24;;;;;;;2.67;1.98;;;;;;;26.44;29.69;97776.66;5018982;28;20017;-79
2021/06/14 07:50:52;;;;;;;4.25;2.00;;;;;;;26.69;30.73;97758.75;5012332;28;20091;-79
2021/06/14 07:53:18;;;;;;;2.33;2.00;;;;;;;27.10;30.27;97773.69;5008365;28;20033;-79
2021/06/14 07:55:43;;;;;;;2.67;2.40;;;;;;;27.04;30.15;97771.59;5021355;28;20032;-80
2021/06/14 07:58:09;;;;;;;3.13;2.50;;;;;;;27.01;30.00;97773.06;5021180;28;20033;-80
2021/06/14 08:00:35;;;;;;;3.72;2.22;;;;;;;27.46;29.01;97757.91;5005565;28;20056;-80
2021/06/14 08:03:02;;;;;;;4.03;2.55;;;;;;;27.62;29.04;97758.72;5026717;28;20097;-80
2021/06/14 08:05:27;;;;;;;3.58;2.13;;;;;;;27.89;29.33;97772.41;5045898;28;20040;-79
2021/06/14 08:07:53;;;;;;;14.43;5.20;;;;;;;28.16;30.56;97778.06;4999372;28;20037;-80
2021/06/14 08:10:19;;;;;;;3.20;2.10;;;;;;;28.40;27.89;97766.38;5033508;28;20083;-81
2021/06/14 08:12:49;;;;;;;9.23;3.95;;;;;;;28.50;28.52;97763.19;5004523;28;20025;-80
2021/06/14 08:15:23;;;;;;;2.67;1.90;;;;;;;28.10;28.20;97769.50;4997656;28;20863;-79
2021/06/14 08:17:49;;;;;;;7.40;3.50;;;;;;;28.01;28.79;97769.66;5002353;28;20404;-80
2021/06/14 08:20:26;;;;;;;3.67;2.60;;;;;;;28.17;28.56;97760.84;4995250;28;20040;-79
2021/06/14 08:25:36;;;;;;;3.00;2.28;;;;;;;28.49;28.40;97750.91;5021930;28;20138;-81
2021/06/14 08:28:03;;;;;;;2.45;2.00;;;;;;;28.72;26.53;97758.31;5031572;28;20075;-80
2021/06/14 08:30:28;;;;;;;4.70;2.45;;;;;;;28.99;26.13;97761.16;5044272;28;20099;-80
2021/06/14 08:32:55;;;;;;;3.40;1.98;;;;;;;28.75;25.63;97768.31;5003956;28;20472;-80
2021/06/14 08:35:23;;;;;;;10.07;3.92;;;;;;;29.06;26.77;97764.00;5004239;28;20036;-81
2021/06/14 08:37:50;;;;;;;6.75;3.10;;;;;;;29.29;27.04;97762.19;4998279;28;20743;-80
2021/06/14 08:40:18;;;;;;;2.08;1.80;;;;;;;29.33;23.79;97771.06;5020180;28;20483;-80
2021/06/14 08:42:44;;;;;;;4.85;2.75;;;;;;;29.51;27.10;97767.97;5020651;28;20052;-80
2021/06/14 08:45:11;;;;;;;2.38;1.77;;;;;;;29.43;23.87;97761.69;4996292;28;20044;-80
2021/06/14 08:47:38;;;;;;;2.42;1.90;;;;;;;29.03;25.24;97751.28;5011689;28;20048;-79
2021/06/14 08:50:07;;;;;;;2.60;2.00;;;;;;;29.18;27.02;97758.53;5035004;28;20051;-79
2021/06/14 08:52:32;;;;;;;2.30;2.10;;;;;;;28.82;25.84;97749.72;5016831;28;20049;-80
2021/06/14 08:55:00;;;;;;;2.80;2.53;;;;;;;28.90;25.23;97751.44;5036765;28;20059;-79
2021/06/14 08:57:26;;;;;;;2.72;2.40;;;;;;;29.41;25.56;97739.03;5021139;28;20075;-81
2021/06/14 08:59:51;;;;;;;6.55;3.42;;;;;;;29.48;23.26;97747.22;5038105;28;20029;-81
2021/06/14 09:02:17;;;;;;;5.28;2.70;;;;;;;30.09;25.03;97747.50;5038674;28;20043;-81
2021/06/14 09:04:42;;;;;;;3.22;2.10;;;;;;;30.00;26.14;97753.88;4992802;28;20040;-80
2021/06/14 09:07:08;;;;;;;2.72;2.15;;;;;;;30.02;24.82;97748.97;5055551;28;20414;-82
2021/06/14 09:09:35;;;;;;;3.95;2.15;;;;;;;29.70;23.77;97753.75;5048953;28;20055;-79
2021/06/14 09:12:02;;;;;;;3.00;2.17;;;;;;;30.05;24.89;97750.91;5017985;28;20025;-79
2021/06/14 09:14:35;;;;;;;5.68;3.00;;;;;;;30.02;24.46;97748.97;4993645;28;20033;-79
2021/06/14 09:17:08;;;;;;;4.22;2.42;;;;;;;30.01;24.55;97750.09;5021392;28;20040;-80
2021/06/14 09:19:38;;;;;;;8.90;3.95;;;;;;;30.80;24.09;97737.81;5021963;28;20029;-80
2021/06/14 09:22:12;;;;;;;2.10;2.00;;;;;;;30.56;22.65;97740.97;5021442;28;20055;-80
2021/06/14 09:24:37;;;;;;;3.92;2.15;;;;;;;30.74;23.13;97731.22;5053170;28;20387;-79
2021/06/14 09:27:03;;;;;;;2.70;2.50;;;;;;;30.99;23.52;97738.84;5020928;28;20043;-79
2021/06/14 09:29:29;;;;;;;2.42;2.17;;;;;;;31.48;22.88;97737.06;5037917;28;20539;-81
2021/06/14 09:31:59;;;;;;;3.30;2.40;;;;;;;31.33;22.10;97736.94;5022082;28;20056;-79
2021/06/14 09:34:41;;;;;;;3.35;2.60;;;;;;;31.45;24.17;97727.81;5015103;28;20041;-79
2021/06/14 09:37:11;;;;;;;2.75;2.55;;;;;;;31.81;24.21;97736.28;5015383;28;20033;-82
2021/06/14 09:39:39;;;;;;;9.25;4.15;;;;;;;32.12;23.26;97728.84;5013767;28;20045;-80
2021/06/14 09:42:23;;;;;;;2.65;2.45;;;;;;;32.20;22.65;97730.44;5027431;28;20458;-79
2021/06/14 09:44:51;;;;;;;3.08;2.33;;;;;;;32.21;23.53;97729.28;5037093;28;20471;-79
2021/06/14 09:47:17;;;;;;;4.10;2.72;;;;;;;31.82;21.54;97732.41;4996400;28;20043;-79
2021/06/14 09:49:55;;;;;;;2.60;2.40;;;;;;;31.74;21.26;97720.06;5019357;28;20073;-80
2021/06/14 09:52:22;;;;;;;2.28;2.08;;;;;;;31.14;22.88;97718.28;5034569;28;20086;-79
2021/06/14 09:54:47;;;;;;;3.05;2.42;;;;;;;31.91;22.96;97714.03;5033478;28;20044;-79
2021/06/14 09:57:27;;;;;;;2.70;2.03;;;;;;;31.58;22.81;97706.06;5019824;28;20031;-79
2021/06/14 09:59:52;;;;;;;2.45;2.25;;;;;;;31.98;22.56;97712.53;5003082;28;20175;-79
2021/06/14 10:02:18;;;;;;;2.85;2.30;;;;;;;31.99;22.24;97709.47;5021395;28;20045;-80
2021/06/14 10:04:54;;;;;;;2.90;2.28;;;;;;;31.78;22.61;97720.09;5024671;28;20491;-81
2021/06/14 10:07:21;;;;;;;2.78;2.00;;;;;;;31.40;22.51;97716.63;5019080;28;20082;-80
2021/06/14 10:09:52;;;;;;;2.03;1.90;;;;;;;31.61;20.91;97699.94;5015110;28;20033;-80
2021/06/14 10:12:22;;;;;;;3.13;2.40;;;;;;;32.00;21.50;97710.25;5019922;28;20537;-80
2021/06/14 10:14:52;;;;;;;2.53;2.30;;;;;;;32.28;22.21;97712.41;5000568;28;20032;-78
2021/06/14 10:17:31;;;;;;;2.38;2.20;;;;;;;32.82;22.67;97705.41;5017278;28;20043;-79
2021/06/14 10:20:18;;;;;;;3.65;2.50;;;;;;;33.16;20.58;97696.28;5027363;28;20072;-78
2021/06/14 10:22:44;;;;;;;3.47;2.38;;;;;;;33.41;20.74;97702.50;5052477;28;20027;-79
2021/06/14 10:25:11;;;;;;;2.50;2.30;;;;;;;32.85;20.36;97698.47;5031631;28;20029;-79
2021/06/14 10:27:37;;;;;;;2.40;1.95;;;;;;;33.06;20.33;97688.91;5020997;28;20037;-79
2021/06/14 10:30:08;;;;;;;3.40;2.28;;;;;;;33.36;19.85;97686.69;5036978;28;20036;-78
2021/06/14 10:32:38;;;;;;;2.65;2.45;;;;;;;33.61;20.32;97672.44;5034768;28;20578;-78
2021/06/14 10:35:05;;;;;;;2.17;2.03;;;;;;;33.97;20.61;97688.66;4998975;28;20079;-79
2021/06/14 10:37:33;;;;;;;3.35;2.13;;;;;;;34.09;19.88;97680.16;5018406;28;20063;-81
2021/06/14 10:39:58;;;;;;;2.63;2.10;;;;;;;34.49;18.70;97671.97;5036383;28;20029;-79
2021/06/14 10:42:24;;;;;;;3.25;2.60;;;;;;;34.03;19.32;97670.91;5004369;28;20425;-78
2021/06/14 10:44:49;;;;;;;2.70;2.50;;;;;;;33.89;19.10;97673.63;5014067;28;20418;-79
2021/06/14 10:47:15;;;;;;;2.47;2.33;;;;;;;34.08;18.39;97672.44;5000656;28;20053;-78
2021/06/14 10:49:41;;;;;;;2.60;2.40;;;;;;;33.80;19.15;97668.63;5036204;28;20110;-78
2021/06/14 10:52:09;;;;;;;2.47;2.05;;;;;;;34.08;19.50;97669.72;5036851;28;20063;-80
2021/06/14 10:54:43;;;;;;;2.60;2.40;;;;;;;34.25;19.57;97668.19;5001104;28;20022;-78
2021/06/14 10:57:10;;;;;;;4.47;2.67;;;;;;;34.37;19.83;97665.06;5034334;28;20048;-80
2021/06/14 10:59:40;;;;;;;2.50;2.30;;;;;;;33.40;20.21;97649.69;5037212;28;20035;-79
2021/06/14 11:02:06;;;;;;;2.47;2.05;;;;;;;33.69;20.87;97657.03;5020368;28;20035;-78
2021/06/14 11:04:32;;;;;;;3.75;2.55;;;;;;;34.01;20.37;97650.84;5028937;28;20037;-78
2021/06/14 11:07:00;;;;;;;2.70;2.50;;;;;;;34.09;20.38;97647.72;5027078;28;20718;-79
2021/06/14 11:09:44;;;;;;;2.15;1.95;;;;;;;33.52;19.39;97645.03;5015155;28;20025;-77
2021/06/14 11:12:33;;;;;;;2.67;2.15;;;;;;;33.46;21.02;97652.00;5012270;28;20025;-78
2021/06/14 11:15:09;;;;;;;3.03;2.22;;;;;;;33.72;19.61;97657.03;4995997;28;20041;-77
2021/06/14 11:17:36;;;;;;;2.17;2.05;;;;;;;33.24;20.08;97660.06;5012456;28;20029;-78
2021/06/14 11:20:02;;;;;;;3.30;2.50;;;;;;;32.97;20.05;97663.06;5016893;28;20525;-80
2021/06/14 11:22:37;;;;;;;2.67;2.30;;;;;;;32.49;21.56;97655.13;5052638;28;20032;-78
2021/06/14 11:25:30;;;;;;;2.60;2.40;;;;;;;32.38;20.39;97654.31;5017783;28;20036;-78
2021/06/14 11:28:06;;;;;;;3.53;2.40;;;;;;;32.65;21.71;97642.16;5027138;28;20025;-78
2021/06/14 11:30:37;;;;;;;2.67;2.45;;;;;;;32.28;19.91;97629.63;5012952;28;20496;-77
2021/06/14 11:33:03;;;;;;;2.05;1.95;;;;;;;32.27;23.06;97633.50;5019231;28;20087;-80
2021/06/14 11:35:29;;;;;;;2.92;2.72;;;;;;;32.38;20.23;97625.44;5026954;28;20099;-78
2021/06/14 11:37:59;;;;;;;2.20;1.85;;;;;;;32.00;21.50;97618.69;5012146;28;20033;-78
2021/06/14 11:40:28;;;;;;;2.50;2.30;;;;;;;32.28;21.21;97608.06;5007732;28;20649;-80
2021/06/14 11:43:06;;;;;;;3.13;2.08;;;;;;;32.11;22.57;97614.13;5016173;28;20056;-78